createdAt,value
2022-10-13T00:01:10.893Z,101577.72
2022-10-13T00:03:40.046Z,101576.78
2022-10-13T00:06:09.566Z,101574.03
2022-10-13T00:08:38.161Z,101575.53
2022-10-13T00:11:20.884Z,101574.00
2022-10-13T00:13:49.619Z,101582.81
2022-10-13T00:16:19.964Z,101581.53
2022-10-13T00:18:48.437Z,101582.34
2022-10-13T00:21:18.893Z,101589.66
2022-10-13T00:23:48.264Z,101585.19
2022-10-13T00:26:21.772Z,101583.91
2022-10-13T00:28:53.089Z,101583.59
2022-10-13T00:31:23.461Z,101588.88
2022-10-13T00:33:51.845Z,101586.22
2022-10-13T00:36:22.946Z,101585.72
2022-10-13T00:38:51.203Z,101585.72
2022-10-13T00:41:18.966Z,101576.59
2022-10-13T00:44:00.053Z,101575.13
2022-10-13T00:46:30.516Z,101584.09
2022-10-13T00:49:14.265Z,101577.78
2022-10-13T00:51:48.998Z,101580.88
2022-10-13T00:54:21.696Z,101580.75
2022-10-13T00:56:51.427Z,101582.91
2022-10-13T00:59:23.315Z,101574.22
2022-10-13T01:01:53.958Z,101582.81
2022-10-13T01:04:25.571Z,101579.09
2022-10-13T01:06:55.081Z,101579.59
2022-10-13T01:09:23.670Z,101573.53
2022-10-13T01:12:13.667Z,101578.22
2022-10-13T01:15:03.091Z,101573.50
2022-10-13T01:17:44.534Z,101574.88
2022-10-13T01:20:26.774Z,101572.13
2022-10-13T01:23:15.405Z,101572.41
2022-10-13T01:26:01.195Z,101579.50
2022-10-13T01:29:01.063Z,101574.66
2022-10-13T01:31:46.626Z,101566.19
2022-10-13T01:34:39.834Z,101563.75
2022-10-13T01:37:22.410Z,101560.69
2022-10-13T01:40:02.102Z,101554.28
2022-10-13T01:42:49.650Z,101559.44
2022-10-13T01:45:22.012Z,101544.81
2022-10-13T01:47:51.672Z,101542.31
2022-10-13T01:50:20.671Z,101541.38
2022-10-13T01:52:50.248Z,101541.41
2022-10-13T01:55:17.766Z,101549.44
2022-10-13T01:57:45.543Z,101546.63
2022-10-13T02:00:16.984Z,101540.22
2022-10-13T02:03:11.841Z,101537.06
2022-10-13T02:05:54.581Z,101535.81
2022-10-13T02:08:29.885Z,101529.53
2022-10-13T02:11:10.880Z,101531.63
2022-10-13T02:13:47.419Z,101528.63
2022-10-13T02:16:23.666Z,101530.44
2022-10-13T02:18:52.578Z,101523.31
2022-10-13T02:21:19.927Z,101519.16
2022-10-13T02:23:47.418Z,101519.84
2022-10-13T02:26:14.821Z,101520.25
2022-10-13T02:28:42.708Z,101531.41
2022-10-13T02:31:10.238Z,101527.88
2022-10-13T02:33:37.690Z,101516.91
2022-10-13T02:36:05.967Z,101522.00
2022-10-13T02:38:33.499Z,101510.94
2022-10-13T02:41:02.769Z,101518.97
2022-10-13T02:43:30.137Z,101516.25
2022-10-13T02:45:57.498Z,101515.28
2022-10-13T02:48:25.012Z,101510.16
2022-10-13T02:50:52.347Z,101509.38
2022-10-13T02:53:22.339Z,101501.16
2022-10-13T02:55:49.897Z,101502.41
2022-10-13T02:58:17.216Z,101501.00
2022-10-13T03:00:44.588Z,101503.56
2022-10-13T03:03:12.557Z,101500.38
2022-10-13T03:05:44.383Z,101496.03
2022-10-13T03:08:11.724Z,101494.56
2022-10-13T03:10:40.803Z,101499.91
2022-10-13T03:13:08.154Z,101498.31
2022-10-13T03:15:35.529Z,101498.00
2022-10-13T03:18:06.463Z,101497.50
2022-10-13T03:20:33.916Z,101504.25
2022-10-13T03:23:01.298Z,101501.38
2022-10-13T03:25:29.052Z,101504.44
2022-10-13T03:27:56.425Z,101509.25
2022-10-13T03:30:23.918Z,101506.28
2022-10-13T03:32:51.262Z,101504.38
2022-10-13T03:35:18.744Z,101501.75
2022-10-13T03:37:46.178Z,101498.91
2022-10-13T03:40:13.540Z,101494.69
2022-10-13T03:42:40.842Z,101504.50
2022-10-13T03:45:09.862Z,101497.59
2022-10-13T03:47:37.595Z,101505.16
2022-10-13T03:50:06.478Z,101508.03
2022-10-13T03:52:33.760Z,101498.53
2022-10-13T03:55:01.200Z,101511.84
2022-10-13T03:57:28.705Z,101516.84
2022-10-13T03:59:57.425Z,101512.97
2022-10-13T04:02:27.552Z,101508.72
2022-10-13T04:04:55.358Z,101511.97
2022-10-13T04:07:22.833Z,101513.75
2022-10-13T04:09:50.244Z,101505.34
2022-10-13T04:12:20.881Z,101515.03
2022-10-13T04:14:49.006Z,101508.47
2022-10-13T04:17:16.343Z,101502.09
2022-10-13T04:19:43.700Z,101506.94
2022-10-13T04:22:11.016Z,101507.72
2022-10-13T04:24:38.410Z,101509.97
2022-10-13T04:27:05.728Z,101507.50
2022-10-13T04:29:33.110Z,101507.50
2022-10-13T04:32:00.436Z,101500.78
2022-10-13T04:34:27.814Z,101488.84
2022-10-13T04:36:55.302Z,101492.53
2022-10-13T04:39:22.670Z,101488.31
2022-10-13T04:41:50.783Z,101484.97
2022-10-13T04:44:18.156Z,101480.00
2022-10-13T04:46:45.599Z,101475.63
2022-10-13T04:49:12.946Z,101473.03
2022-10-13T04:51:42.665Z,101480.00
2022-10-13T04:54:10.265Z,101475.88
2022-10-13T04:56:37.611Z,101464.16
2022-10-13T04:59:05.823Z,101470.50
2022-10-13T05:01:35.821Z,101466.03
2022-10-13T05:04:07.138Z,101468.44
2022-10-13T05:06:53.625Z,101465.53
2022-10-13T05:09:26.698Z,101458.34
2022-10-13T05:11:55.307Z,101463.94
2022-10-13T05:14:23.505Z,101467.03
2022-10-13T05:16:50.870Z,101462.84
2022-10-13T05:19:18.232Z,101459.13
2022-10-13T05:21:45.637Z,101460.56
2022-10-13T05:24:13.484Z,101455.72
2022-10-13T05:26:41.572Z,101456.22
2022-10-13T05:29:09.844Z,101461.19
2022-10-13T05:31:37.209Z,101455.09
2022-10-13T05:34:04.539Z,101451.03
2022-10-13T05:36:34.915Z,101458.28
2022-10-13T05:39:05.719Z,101457.00
2022-10-13T05:41:33.866Z,101464.09
2022-10-13T05:44:06.536Z,101457.81
2022-10-13T05:46:35.642Z,101465.88
2022-10-13T05:49:03.422Z,101466.66
2022-10-13T05:51:32.792Z,101462.59
2022-10-13T05:54:15.093Z,101466.91
2022-10-13T05:56:48.163Z,101473.97
2022-10-13T05:59:21.360Z,101464.16
2022-10-13T06:01:52.158Z,101473.13
2022-10-13T06:04:30.514Z,101476.78
2022-10-13T06:06:57.914Z,101476.59
2022-10-13T06:09:26.874Z,101475.53
2022-10-13T06:11:54.182Z,101475.44
2022-10-13T06:14:22.841Z,101474.38
2022-10-13T06:16:51.674Z,101468.19
2022-10-13T06:19:19.032Z,101474.34
2022-10-13T06:21:46.584Z,101476.56
2022-10-13T06:24:13.939Z,101483.38
2022-10-13T06:26:41.760Z,101483.94
2022-10-13T06:29:09.194Z,101480.59
2022-10-13T06:31:36.582Z,101481.25
2022-10-13T06:34:04.930Z,101488.50
2022-10-13T06:36:33.171Z,101490.09
2022-10-13T06:39:00.508Z,101485.03
2022-10-13T06:41:27.985Z,101477.41
2022-10-13T06:43:55.319Z,101485.97
2022-10-13T06:46:22.667Z,101495.13
2022-10-13T06:48:51.130Z,101482.88
2022-10-13T06:51:21.164Z,101498.03
2022-10-13T06:53:49.925Z,101491.53
2022-10-13T06:56:23.396Z,101481.69
2022-10-13T06:58:50.782Z,101491.63
2022-10-13T07:01:18.194Z,101490.59
2022-10-13T07:03:49.533Z,101493.13
2022-10-13T07:06:19.620Z,101485.81
2022-10-13T07:08:47.162Z,101489.94
2022-10-13T07:11:16.737Z,101490.63
2022-10-13T07:13:49.079Z,101486.06
2022-10-13T07:16:19.006Z,101494.19
2022-10-13T07:18:47.937Z,101502.56
2022-10-13T07:21:18.027Z,101496.88
2022-10-13T07:23:45.383Z,101503.06
2022-10-13T07:26:16.163Z,101507.63
2022-10-13T07:28:44.390Z,101502.13
2022-10-13T07:31:17.785Z,101507.06
2022-10-13T07:33:47.658Z,101507.00
2022-10-13T07:36:17.378Z,101508.81
2022-10-13T07:38:45.094Z,101504.34
2022-10-13T07:41:13.149Z,101501.13
2022-10-13T07:43:41.173Z,101487.38
2022-10-13T07:46:10.301Z,101495.72
2022-10-13T07:48:37.659Z,101497.06
2022-10-13T07:51:07.423Z,101488.72
2022-10-13T07:53:35.554Z,101487.63
2022-10-13T07:56:05.274Z,101493.16
2022-10-13T07:58:33.677Z,101489.19
2022-10-13T08:01:02.198Z,101487.72
2022-10-13T08:03:31.870Z,101487.31
2022-10-13T08:06:01.548Z,101486.50
2022-10-13T08:08:29.277Z,101483.22
2022-10-13T08:11:03.389Z,101477.88
2022-10-13T08:13:32.802Z,101491.78
2022-10-13T08:16:08.542Z,101479.09
2022-10-13T08:18:35.883Z,101480.16
2022-10-13T08:21:32.944Z,101477.25
2022-10-13T08:23:52.061Z,101478.03
2022-10-13T08:26:23.842Z,101476.03
2022-10-13T08:31:42.062Z,101477.50
2022-10-13T08:34:10.512Z,101474.19
2022-10-13T08:36:38.892Z,101470.78
2022-10-13T08:39:06.416Z,101466.03
2022-10-13T08:41:39.029Z,101471.56
2022-10-13T08:45:06.402Z,101469.81
2022-10-13T08:47:23.819Z,101472.06
2022-10-13T08:49:52.137Z,101466.38
2022-10-13T08:52:25.241Z,101469.69
2022-10-13T08:54:54.891Z,101471.69
2022-10-13T08:57:24.421Z,101464.13
2022-10-13T08:59:52.601Z,101463.75
2022-10-13T09:02:27.246Z,101460.88
2022-10-13T09:04:55.724Z,101460.66
2022-10-13T09:07:29.613Z,101458.53
2022-10-13T09:09:57.947Z,101463.47
2022-10-13T09:12:26.275Z,101463.41
2022-10-13T09:15:05.267Z,101466.69
2022-10-13T09:17:34.293Z,101456.91
2022-10-13T09:20:07.024Z,101448.41
2022-10-13T09:22:39.568Z,101453.41
2022-10-13T09:25:06.941Z,101454.28
2022-10-13T09:27:49.548Z,101455.25
2022-10-13T09:30:34.465Z,101451.31
2022-10-13T09:33:13.795Z,101445.00
2022-10-13T09:35:42.805Z,101449.56
2022-10-13T09:38:22.174Z,101444.25
2022-10-13T09:41:10.003Z,101439.03
2022-10-13T09:43:44.254Z,101441.41
2022-10-13T09:46:52.498Z,101435.69
2022-10-13T09:49:34.620Z,101436.81
2022-10-13T09:52:26.473Z,101436.97
2022-10-13T09:55:00.912Z,101441.63
2022-10-13T09:57:34.306Z,101440.25
2022-10-13T10:00:17.514Z,101439.28
2022-10-13T10:02:56.549Z,101435.44
2022-10-13T10:05:35.903Z,101433.91
2022-10-13T10:08:33.630Z,101425.16
2022-10-13T10:11:38.022Z,101421.59
2022-10-13T10:14:23.876Z,101423.56
2022-10-13T10:17:21.796Z,101417.22
2022-10-13T10:20:09.773Z,101418.81
2022-10-13T10:22:49.532Z,101416.41
2022-10-13T10:25:35.485Z,101408.84
2022-10-13T10:28:45.676Z,101406.84
2022-10-13T10:31:47.355Z,101396.09
2022-10-13T10:34:32.943Z,101398.94
2022-10-13T10:37:25.625Z,101394.50
2022-10-13T10:40:00.170Z,101392.97
2022-10-13T10:42:39.527Z,101383.47
2022-10-13T10:45:16.969Z,101384.97
2022-10-13T10:47:47.869Z,101375.84
2022-10-13T10:50:18.247Z,101377.44
2022-10-13T10:53:09.199Z,101365.50
2022-10-13T10:55:55.105Z,101361.88
2022-10-13T10:58:34.582Z,101355.16
2022-10-13T11:01:12.121Z,101356.38
2022-10-13T11:04:35.584Z,101347.94
2022-10-13T11:07:04.251Z,101349.06
2022-10-13T11:09:43.570Z,101342.69
2022-10-13T11:12:49.708Z,101341.16
2022-10-13T11:15:28.705Z,101333.91
2022-10-13T11:17:56.086Z,101334.53
2022-10-13T11:20:26.626Z,101336.16
2022-10-13T11:22:59.827Z,101326.22
2022-10-13T11:25:48.827Z,101330.97
2022-10-13T11:28:42.654Z,101332.19
2022-10-13T11:31:14.739Z,101315.81
2022-10-13T11:33:42.101Z,101314.66
2022-10-13T11:36:32.440Z,101313.50
2022-10-13T11:39:18.613Z,101302.81
2022-10-13T11:41:51.760Z,101305.22
2022-10-13T11:44:34.844Z,101297.28
2022-10-13T11:47:17.243Z,101296.91
2022-10-13T11:50:10.865Z,101286.16
2022-10-13T11:52:47.740Z,101281.75
2022-10-13T11:55:19.924Z,101273.41
2022-10-13T11:57:48.260Z,101267.47
2022-10-13T12:00:18.930Z,101278.22
2022-10-13T12:02:53.205Z,101270.22
2022-10-13T12:05:27.373Z,101270.88
2022-10-13T12:07:58.945Z,101256.63
2022-10-13T12:10:37.560Z,101254.59
2022-10-13T12:13:21.873Z,101263.47
2022-10-13T12:16:08.333Z,101264.34
2022-10-13T12:18:40.900Z,101265.13
2022-10-13T12:21:13.042Z,101256.41
2022-10-13T12:23:41.017Z,101251.63
2022-10-13T12:26:15.878Z,101248.44
2022-10-13T12:28:46.899Z,101241.69
2022-10-13T12:31:30.456Z,101247.25
2022-10-13T12:34:03.324Z,101240.13
2022-10-13T12:36:35.426Z,101237.69
2022-10-13T12:39:12.175Z,101237.22
2022-10-13T12:41:48.975Z,101234.50
2022-10-13T12:44:28.310Z,101241.72
2022-10-13T12:47:02.069Z,101240.13
2022-10-13T12:49:33.578Z,101245.28
2022-10-13T12:52:09.810Z,101238.13
2022-10-13T12:54:49.939Z,101242.09
2022-10-13T12:57:37.822Z,101238.13
2022-10-13T13:00:26.529Z,101242.09
2022-10-13T13:02:55.173Z,101242.84
2022-10-13T13:05:40.687Z,101249.91
2022-10-13T13:08:23.656Z,101242.34
2022-10-13T13:10:55.145Z,101234.41
2022-10-13T13:13:23.557Z,101227.28
2022-10-13T13:15:51.043Z,101234.81
2022-10-13T13:18:27.438Z,101226.53
2022-10-13T13:20:55.094Z,101223.81
2022-10-13T13:23:23.491Z,101228.56
2022-10-13T13:26:13.295Z,101221.44
2022-10-13T13:28:47.604Z,101231.38
2022-10-13T13:31:17.125Z,101222.22
2022-10-13T13:33:44.785Z,101226.63
2022-10-13T13:36:18.714Z,101224.22
2022-10-13T13:38:51.421Z,101219.09
2022-10-13T13:41:19.255Z,101217.09
2022-10-13T13:43:46.718Z,101206.78
2022-10-13T13:46:20.897Z,101213.53
2022-10-13T13:48:50.743Z,101207.19
2022-10-13T13:51:18.290Z,101202.00
2022-10-13T13:53:46.586Z,101193.59
2022-10-13T13:56:15.998Z,101192.81
2022-10-13T13:58:43.966Z,101182.13
2022-10-13T14:01:13.369Z,101186.88
2022-10-13T14:03:40.708Z,101178.56
2022-10-13T14:06:09.258Z,101183.31
2022-10-13T14:08:42.599Z,101184.50
2022-10-13T14:11:10.689Z,101182.81
2022-10-13T14:13:38.052Z,101184.00
2022-10-13T14:16:05.648Z,101181.63
2022-10-13T14:18:33.036Z,101187.19
2022-10-13T14:21:00.405Z,101182.00
2022-10-13T14:23:27.811Z,101187.56
2022-10-13T14:25:55.354Z,101178.88
2022-10-13T14:28:23.185Z,101187.97
2022-10-13T14:30:50.665Z,101175.25
2022-10-13T14:33:19.657Z,101183.97
2022-10-13T14:35:47.173Z,101174.44
2022-10-13T14:38:16.833Z,101170.84
2022-10-13T14:40:44.998Z,101177.94
2022-10-13T14:43:12.300Z,101179.16
2022-10-13T14:45:39.620Z,101171.63
2022-10-13T14:48:11.786Z,101163.25
2022-10-13T14:50:39.257Z,101170.41
2022-10-13T14:53:09.617Z,101166.00
2022-10-13T14:55:37.167Z,101160.00
2022-10-13T14:58:04.557Z,101162.78
2022-10-13T15:00:31.930Z,101155.63
2022-10-13T15:03:02.559Z,101160.38
2022-10-13T15:05:30.531Z,101153.66
2022-10-13T15:07:58.130Z,101154.47
2022-10-13T15:10:25.519Z,101158.06
2022-10-13T15:12:53.005Z,101157.63
2022-10-13T15:15:20.651Z,101157.16
2022-10-13T15:17:47.953Z,101157.13
2022-10-13T15:20:15.303Z,101152.31
2022-10-13T15:22:42.747Z,101158.63
2022-10-13T15:25:11.893Z,101159.00
2022-10-13T15:27:41.835Z,101153.84
2022-10-13T15:30:12.368Z,101147.91
2022-10-13T15:32:39.708Z,101145.50
2022-10-13T15:35:07.451Z,101139.50
2022-10-13T15:37:36.769Z,101148.19
2022-10-13T15:40:04.640Z,101141.50
2022-10-13T15:42:31.908Z,101150.97
2022-10-13T15:45:15.556Z,101139.09
2022-10-13T15:47:42.959Z,101144.22
2022-10-13T15:50:10.571Z,101138.59
2022-10-13T15:52:39.764Z,101133.88
2022-10-13T15:55:09.349Z,101142.91
2022-10-13T15:57:37.016Z,101146.09
2022-10-13T16:00:06.284Z,101137.34
2022-10-13T16:02:40.907Z,101140.09
2022-10-13T16:05:12.897Z,101144.84
2022-10-13T16:07:41.442Z,101146.78
2022-10-13T16:10:10.659Z,101151.88
2022-10-13T16:12:39.001Z,101148.63
2022-10-13T16:15:10.762Z,101145.81
2022-10-13T16:17:38.515Z,101142.22
2022-10-13T16:20:06.472Z,101135.88
2022-10-13T16:22:33.952Z,101140.94
2022-10-13T16:25:06.304Z,101142.84
2022-10-13T16:27:33.762Z,101135.25
2022-10-13T16:30:01.217Z,101143.50
2022-10-13T16:32:28.803Z,101141.16
2022-10-13T16:34:59.738Z,101142.31
2022-10-13T16:37:27.201Z,101140.28
2022-10-13T16:39:54.560Z,101148.97
2022-10-13T16:42:22.086Z,101140.97
2022-10-13T16:44:49.389Z,101144.88
2022-10-13T16:47:18.622Z,101143.28
2022-10-13T16:49:47.091Z,101127.00
2022-10-13T16:52:15.444Z,101138.91
2022-10-13T16:54:45.998Z,101145.22
2022-10-13T16:57:13.379Z,101149.56
2022-10-13T16:59:41.081Z,101150.81
2022-10-13T17:02:14.748Z,101150.69
2022-10-13T17:04:43.127Z,101156.16
2022-10-13T17:07:10.563Z,101151.03
2022-10-13T17:09:37.852Z,101156.94
2022-10-13T17:12:05.859Z,101151.75
2022-10-13T17:14:33.207Z,101155.31
2022-10-13T17:17:00.617Z,101153.66
2022-10-13T17:19:28.189Z,101159.91
2022-10-13T17:21:56.677Z,101157.88
2022-10-13T17:24:24.064Z,101161.44
2022-10-13T17:26:51.476Z,101168.16
2022-10-13T17:29:18.956Z,101155.78
2022-10-13T17:31:46.432Z,101158.28
2022-10-13T17:34:13.840Z,101166.03
2022-10-13T17:36:41.272Z,101164.25
2022-10-13T17:39:11.555Z,101162.59
2022-10-13T17:41:40.978Z,101163.25
2022-10-13T17:44:08.376Z,101157.00
2022-10-13T17:46:37.871Z,101159.28
2022-10-13T17:49:10.975Z,101170.22
2022-10-13T17:51:40.264Z,101174.34
2022-10-13T17:54:12.942Z,101174.22
2022-10-13T17:56:41.955Z,101171.09
2022-10-13T17:59:10.213Z,101161.66
2022-10-13T18:01:37.931Z,101156.56
2022-10-13T18:04:08.495Z,101157.72
2022-10-13T18:06:40.454Z,101160.72
2022-10-13T18:09:10.426Z,101157.56
2022-10-13T18:11:38.825Z,101159.94
2022-10-13T18:14:06.745Z,101159.22
2022-10-13T18:16:34.636Z,101167.34
2022-10-13T18:19:02.583Z,101160.00
2022-10-13T18:21:30.618Z,101169.88
2022-10-13T18:24:00.796Z,101173.34
2022-10-13T18:26:36.645Z,101181.50
2022-10-13T18:29:06.271Z,101181.84
2022-10-13T18:31:38.556Z,101175.63
2022-10-13T18:34:08.737Z,101184.84
2022-10-13T18:36:42.291Z,101178.47
2022-10-13T18:39:16.225Z,101182.59
2022-10-13T18:41:46.614Z,101175.50
2022-10-13T18:44:14.761Z,101176.31
2022-10-13T18:46:44.075Z,101175.13
2022-10-13T18:49:13.432Z,101175.78
2022-10-13T18:51:42.619Z,101176.38
2022-10-13T18:54:10.291Z,101180.63
2022-10-13T18:56:37.772Z,101177.16
2022-10-13T18:59:08.501Z,101178.34
2022-10-13T19:01:38.476Z,101172.25
2022-10-13T19:04:06.112Z,101170.56
2022-10-13T19:06:33.711Z,101177.56
2022-10-13T19:09:07.417Z,101171.88
2022-10-13T19:11:37.371Z,101176.72
2022-10-13T19:14:06.969Z,101179.19
2022-10-13T19:16:37.164Z,101187.41
2022-10-13T19:19:07.033Z,101183.25
2022-10-13T19:21:34.918Z,101185.91
2022-10-13T19:24:02.271Z,101188.59
2022-10-13T19:26:32.679Z,101177.22
2022-10-13T19:29:04.558Z,101188.25
2022-10-13T19:31:33.196Z,101185.00
2022-10-13T19:34:03.390Z,101181.69
2022-10-13T19:36:34.160Z,101186.50
2022-10-13T19:39:04.715Z,101182.75
2022-10-13T19:41:33.386Z,101181.53
2022-10-13T19:44:01.184Z,101180.38
2022-10-13T19:46:40.169Z,101183.00
2022-10-13T19:49:08.373Z,101188.84
2022-10-13T19:51:37.919Z,101183.50
2022-10-13T19:54:05.487Z,101178.34
2022-10-13T19:56:33.959Z,101182.78
2022-10-13T19:59:04.406Z,101171.34
2022-10-13T20:01:39.804Z,101178.72
2022-10-13T20:04:10.225Z,101173.94
2022-10-13T20:06:39.229Z,101163.91
2022-10-13T20:09:06.862Z,101160.97
2022-10-13T20:11:34.482Z,101160.63
2022-10-13T20:14:01.826Z,101150.44
2022-10-13T20:16:29.407Z,101161.16
2022-10-13T20:18:59.775Z,101162.06
2022-10-13T20:21:28.063Z,101167.97
2022-10-13T20:23:56.227Z,101171.38
2022-10-13T20:26:24.356Z,101173.66
2022-10-13T20:28:53.176Z,101171.72
2022-10-13T20:31:22.187Z,101181.13
2022-10-13T20:33:55.130Z,101180.34
2022-10-13T20:36:25.316Z,101172.00
2022-10-13T20:38:52.658Z,101177.22
2022-10-13T20:41:28.779Z,101175.47
2022-10-13T20:43:58.122Z,101174.59
2022-10-13T20:46:26.585Z,101171.84
2022-10-13T20:49:11.566Z,101178.41
2022-10-13T20:51:40.078Z,101181.59
2022-10-13T20:54:07.913Z,101183.38
2022-10-13T20:56:35.809Z,101185.22
2022-10-13T20:59:09.279Z,101197.75
2022-10-13T21:01:37.123Z,101195.34
2022-10-13T21:04:14.938Z,101176.09
2022-10-13T21:06:53.314Z,101186.56
2022-10-13T21:09:31.495Z,101183.81
2022-10-13T21:12:09.844Z,101190.63
2022-10-13T21:14:47.659Z,101184.44
2022-10-13T21:17:25.864Z,101191.53
2022-10-13T21:20:04.356Z,101187.03
2022-10-13T21:22:44.006Z,101185.22
2022-10-13T21:25:22.050Z,101185.50
2022-10-13T21:28:02.613Z,101183.34
2022-10-13T21:30:40.058Z,101186.09
2022-10-13T21:33:18.365Z,101182.47
2022-10-13T21:35:57.199Z,101189.00
2022-10-13T21:38:35.892Z,101187.16
2022-10-13T21:41:15.100Z,101192.19
2022-10-13T21:43:53.318Z,101182.59
2022-10-13T21:46:34.294Z,101189.63
2022-10-13T21:49:12.409Z,101182.91
2022-10-13T21:51:52.609Z,101184.50
2022-10-13T21:54:30.533Z,101183.34
2022-10-13T21:57:08.561Z,101190.69
2022-10-13T21:59:47.662Z,101191.59
2022-10-13T22:02:25.023Z,101197.19
2022-10-13T22:05:03.601Z,101200.28
2022-10-13T22:07:41.449Z,101197.53
2022-10-13T22:10:19.713Z,101192.63
2022-10-13T22:12:57.969Z,101186.53
2022-10-13T22:15:36.150Z,101184.25
2022-10-13T22:18:15.041Z,101183.97
2022-10-13T22:20:52.379Z,101187.28
2022-10-13T22:23:29.410Z,101187.28
2022-10-13T22:26:08.374Z,101186.16
2022-10-13T22:28:48.549Z,101191.19
2022-10-13T22:31:27.995Z,101183.66
2022-10-13T22:34:06.731Z,101191.91
2022-10-13T22:36:45.609Z,101185.94
2022-10-13T22:39:23.455Z,101182.88
2022-10-13T22:42:04.490Z,101188.75
2022-10-13T22:44:44.881Z,101186.53
2022-10-13T22:47:22.916Z,101183.56
2022-10-13T22:50:00.693Z,101180.34
2022-10-13T22:52:38.949Z,101185.03
2022-10-13T22:55:17.103Z,101174.66
2022-10-13T22:57:56.745Z,101173.75
2022-10-13T23:00:39.160Z,101178.81
2022-10-13T23:03:16.864Z,101171.28
2022-10-13T23:06:00.627Z,101176.06
2022-10-13T23:08:39.572Z,101174.94
2022-10-13T23:11:18.273Z,101179.53
2022-10-13T23:13:55.852Z,101169.88
2022-10-13T23:16:36.912Z,101173.91
2022-10-13T23:19:15.318Z,101162.59
2022-10-13T23:21:53.548Z,101158.25
2022-10-13T23:24:31.771Z,101153.00
2022-10-13T23:27:09.929Z,101160.78
2022-10-13T23:29:51.408Z,101158.84
2022-10-13T23:32:29.661Z,101154.38
2022-10-13T23:35:08.243Z,101149.56
2022-10-13T23:37:45.962Z,101148.22
2022-10-13T23:40:25.402Z,101151.78
2022-10-13T23:43:03.958Z,101156.81
2022-10-13T23:45:43.852Z,101152.81
2022-10-13T23:48:25.235Z,101157.97
2022-10-13T23:51:10.128Z,101164.09
2022-10-13T23:53:48.093Z,101158.97
2022-10-13T23:56:29.138Z,101167.56
2022-10-13T23:59:07.777Z,101165.41
